Time;durP1;ratioP1;P1;durP2;ratioP2;P2;SDS_P1;SDS_P2;PMS_P1;PMS_P2;Temp;Humidity;BMP_temperature;BMP_pressure;BME280_temperature;BME280_humidity;BME280_pressure;Samples;Min_cycle;Max_cycle;Signal;HPM_P1;HPM_P2
2022/07/15 00:02:17;;;;;;;3.20;2.90;;;;;;;16.54;76.79;99144.10;1814068;78;21079;-77
2022/07/15 00:04:44;;;;;;;3.00;2.85;;;;;;;16.52;76.72;99138.05;1813997;79;21115;-77
2022/07/15 00:07:12;;;;;;;3.17;2.85;;;;;;;16.49;76.82;99128.95;1813910;79;21629;-77
2022/07/15 00:12:24;;;;;;;;;;;;;;;16.43;77.06;99134.68;1816665;79;21610;-77
2022/07/15 00:14:52;;;;;;;3.60;3.30;;;;;;;16.44;77.30;99131.05;1814084;79;20192;-78
2022/07/15 00:17:19;;;;;;;7.85;3.00;;;;;;;16.46;77.19;99129.17;1813847;79;20982;-78
2022/07/15 00:19:45;;;;;;;3.10;2.75;;;;;;;16.49;77.10;99127.62;1814245;79;21100;-77
2022/07/15 00:22:12;;;;;;;4.45;2.33;;;;;;;16.50;77.09;99125.35;1814060;78;21973;-77
2022/07/15 00:24:39;;;;;;;4.97;2.62;;;;;;;16.51;76.93;99123.92;1814024;79;21043;-77
2022/07/15 00:27:06;;;;;;;3.00;2.80;;;;;;;16.50;77.00;99126.68;1814299;79;21119;-78
2022/07/15 00:29:33;;;;;;;6.45;2.50;;;;;;;16.52;77.22;99126.09;1813809;79;21036;-77
2022/07/15 00:32:00;;;;;;;2.47;2.37;;;;;;;16.49;77.32;99119.20;1814123;79;21052;-77
2022/07/15 00:34:27;;;;;;;3.60;2.35;;;;;;;16.47;77.39;99110.94;1814185;79;21107;-77
2022/07/15 00:36:54;;;;;;;5.03;2.80;;;;;;;16.45;77.11;99107.05;1814066;79;21099;-78
2022/07/15 00:39:21;;;;;;;4.42;2.83;;;;;;;16.43;77.05;99109.45;1819002;77;21061;-77
2022/07/15 00:41:48;;;;;;;2.85;2.65;;;;;;;16.41;77.14;99104.69;1819593;78;21015;-78
2022/07/15 00:44:15;;;;;;;3.05;2.72;;;;;;;16.39;77.31;99103.95;1819588;78;21097;-78
2022/07/15 00:46:42;;;;;;;4.00;2.80;;;;;;;16.35;77.39;99098.83;1819574;78;21799;-77
2022/07/15 00:49:09;;;;;;;3.27;2.95;;;;;;;16.35;77.79;99101.48;1819398;78;21031;-77
2022/07/15 00:51:39;;;;;;;5.10;2.80;;;;;;;16.33;77.90;99099.41;1819384;78;21051;-78
2022/07/15 00:54:08;;;;;;;4.67;3.70;;;;;;;16.35;78.32;99097.99;1819770;78;21663;-77
2022/07/15 00:56:41;;;;;;;3.15;2.90;;;;;;;16.37;78.51;99096.56;1818677;78;21040;-78
2022/07/15 00:59:08;;;;;;;4.17;3.30;;;;;;;16.38;78.42;99094.30;1786331;80;22367;-77
2022/07/15 01:01:35;;;;;;;3.00;2.80;;;;;;;16.41;78.45;99094.95;1786040;80;21005;-78
2022/07/15 01:04:06;;;;;;;3.65;2.70;;;;;;;16.44;78.36;99093.87;1786257;80;21125;-78
2022/07/15 01:06:33;;;;;;;2.47;2.27;;;;;;;16.50;78.75;99092.16;1786120;80;20996;-78
2022/07/15 01:09:02;;;;;;;3.30;3.00;;;;;;;16.53;78.81;99100.77;1786277;80;21101;-77
2022/07/15 01:11:30;;;;;;;3.90;3.00;;;;;;;16.55;78.59;99102.00;1786152;80;21142;-78
2022/07/15 01:13:59;;;;;;;3.67;3.10;;;;;;;16.57;78.62;99094.77;1724282;82;21057;-78
2022/07/15 01:16:26;;;;;;;2.85;2.65;;;;;;;16.60;78.79;99095.06;1777803;80;22203;-77
2022/07/15 01:18:54;;;;;;;3.35;3.12;;;;;;;16.63;78.88;99095.70;1747168;82;21097;-77
2022/07/15 01:21:23;;;;;;;4.17;3.15;;;;;;;16.67;78.99;99094.53;1758464;81;21130;-79
2022/07/15 01:23:52;;;;;;;3.02;2.80;;;;;;;16.68;79.05;99100.23;1825297;78;21042;-77
2022/07/15 01:26:23;;;;;;;6.30;3.35;;;;;;;16.71;79.03;99090.73;1825032;78;21066;-78
2022/07/15 01:28:51;;;;;;;3.08;2.87;;;;;;;16.72;79.09;99087.11;1825017;77;21026;-77
2022/07/15 01:31:19;;;;;;;4.97;3.20;;;;;;;16.76;79.03;99091.77;1829440;77;21037;-77
2022/07/15 01:33:48;;;;;;;3.35;2.87;;;;;;;16.78;78.77;99087.65;1825115;77;21023;-77
2022/07/15 01:36:15;;;;;;;2.85;2.33;;;;;;;16.79;78.75;99092.02;1825246;78;21846;-77
2022/07/15 01:38:43;;;;;;;2.60;2.40;;;;;;;16.79;78.94;99096.84;1825071;77;21069;-78
2022/07/15 01:41:10;;;;;;;4.22;2.58;;;;;;;16.78;79.05;99097.82;1825529;78;21114;-77
2022/07/15 01:43:38;;;;;;;3.67;2.85;;;;;;;16.77;79.18;99095.27;1825105;78;21043;-78
2022/07/15 01:46:05;;;;;;;2.50;2.30;;;;;;;16.77;79.12;99092.61;1825695;78;21180;-77
2022/07/15 01:51:37;;;;;;;4.85;2.87;;;;;;;16.75;79.70;99095.85;1825919;77;21066;-78
2022/07/15 01:54:04;;;;;;;2.47;2.37;;;;;;;16.72;79.46;99099.55;1825081;78;21030;-77
2022/07/15 01:56:31;;;;;;;2.60;2.40;;;;;;;16.75;79.12;99090.54;1825617;78;21112;-77
2022/07/15 01:58:59;;;;;;;4.95;2.50;;;;;;;16.77;78.74;99089.95;1805432;78;20988;-77
2022/07/15 02:01:26;;;;;;;3.72;2.90;;;;;;;16.78;79.07;99099.15;1805352;79;22175;-78
2022/07/15 02:03:53;;;;;;;3.08;2.70;;;;;;;16.81;78.60;99100.73;1804875;78;20985;-78
2022/07/15 02:06:20;;;;;;;2.67;2.47;;;;;;;16.82;78.74;99096.64;1805239;79;21067;-76
2022/07/15 02:08:48;;;;;;;3.90;2.40;;;;;;;16.85;78.36;99095.64;1804976;79;20941;-77
2022/07/15 02:11:17;;;;;;;3.10;2.80;;;;;;;16.88;78.58;99092.78;1805015;79;21059;-78
2022/07/15 02:13:46;;;;;;;12.63;7.60;;;;;;;16.89;79.13;99088.69;1804960;78;21543;-77
2022/07/15 02:16:13;;;;;;;9.23;5.92;;;;;;;16.90;78.94;99084.22;1804982;79;21602;-78
2022/07/15 02:18:42;;;;;;;11.10;6.55;;;;;;;16.91;78.60;99075.27;1804764;78;21713;-78
2022/07/15 02:21:09;;;;;;;10.70;5.42;;;;;;;16.95;78.40;99075.45;1805317;79;21056;-78
2022/07/15 02:23:36;;;;;;;8.00;5.20;;;;;;;16.98;78.44;99073.92;1804837;78;21039;-77
2022/07/15 02:26:04;;;;;;;5.22;4.00;;;;;;;16.98;78.51;99077.03;1805108;79;21530;-78
2022/07/15 02:28:31;;;;;;;7.42;3.90;;;;;;;16.98;78.78;99083.23;1805045;78;21090;-77
2022/07/15 02:30:59;;;;;;;7.03;3.50;;;;;;;16.96;78.85;99077.14;1804781;79;21086;-78
2022/07/15 02:33:25;;;;;;;3.50;3.00;;;;;;;16.97;78.84;99080.18;1805236;79;21044;-77
2022/07/15 02:35:52;;;;;;;3.50;3.20;;;;;;;16.98;78.60;99074.38;1805093;78;21488;-77
2022/07/15 02:38:22;;;;;;;5.80;4.08;;;;;;;16.99;78.61;99070.30;1804929;78;21119;-78
2022/07/15 02:40:50;;;;;;;11.83;5.40;;;;;;;17.01;78.59;99064.42;1818177;78;20996;-78
2022/07/15 02:43:17;;;;;;;7.70;5.03;;;;;;;17.03;78.24;99067.81;1837970;78;21066;-77
2022/07/15 02:45:44;;;;;;;8.45;5.80;;;;;;;17.07;78.44;99061.80;1837818;78;21062;-77
2022/07/15 02:48:13;;;;;;;8.60;5.95;;;;;;;17.13;78.12;99060.52;1837906;77;21051;-78
2022/07/15 02:50:41;;;;;;;10.25;8.10;;;;;;;17.16;78.50;99057.66;1768541;81;21148;-78
2022/07/15 02:53:09;;;;;;;13.08;7.10;;;;;;;17.19;78.43;99056.13;1800903;79;21302;-77
2022/07/15 02:55:37;;;;;;;13.70;8.30;;;;;;;17.20;77.97;99057.83;1744908;81;21078;-78
2022/07/15 02:58:04;;;;;;;15.88;8.18;;;;;;;17.22;78.39;99062.56;1800811;79;21083;-77
2022/07/15 03:00:32;;;;;;;10.48;6.97;;;;;;;17.24;78.32;99063.30;1750295;80;21132;-78
2022/07/15 03:03:01;;;;;;;12.03;8.48;;;;;;;17.25;78.22;99065.02;1804113;79;21066;-78
2022/07/15 03:05:29;;;;;;;21.27;13.53;;;;;;;17.24;78.35;99063.30;1727865;83;21016;-78
2022/07/15 03:07:56;;;;;;;11.25;6.40;;;;;;;17.24;78.49;99064.63;1745143;81;21090;-78
2022/07/15 03:10:25;;;;;;;11.60;6.28;;;;;;;17.23;78.66;99065.57;1745005;82;21063;-78
2022/07/15 03:12:52;;;;;;;10.65;7.22;;;;;;;17.23;78.77;99065.57;1745066;81;21139;-77
2022/07/15 03:15:19;;;;;;;15.03;6.80;;;;;;;17.23;78.62;99066.44;1745256;82;21554;-77
2022/07/15 03:17:47;;;;;;;13.72;6.87;;;;;;;17.24;78.76;99072.60;1744961;82;21162;-78
2022/07/15 03:20:14;;;;;;;10.25;6.35;;;;;;;17.27;78.64;99073.72;1745182;82;21020;-77
2022/07/15 03:22:42;;;;;;;6.37;5.42;;;;;;;17.28;78.99;99080.72;1803200;79;21677;-77
2022/07/15 03:25:10;;;;;;;6.28;4.60;;;;;;;17.32;79.01;99083.56;1728488;83;20997;-78
2022/07/15 03:27:37;;;;;;;9.15;4.55;;;;;;;17.34;79.13;99088.77;1745380;81;21182;-77
2022/07/15 03:30:07;;;;;;;6.83;4.42;;;;;;;17.33;79.40;99093.25;1745061;81;21518;-78
2022/07/15 03:32:34;;;;;;;4.58;3.80;;;;;;;17.30;79.87;99104.09;1745184;81;22056;-76
2022/07/15 03:35:01;;;;;;;5.08;4.05;;;;;;;17.25;80.24;99109.72;1745183;81;21052;-78
2022/07/15 03:37:30;;;;;;;6.00;3.77;;;;;;;17.21;80.61;99116.19;1745199;82;21613;-78
2022/07/15 03:39:59;;;;;;;6.47;3.92;;;;;;;17.17;81.08;99124.50;1745157;81;21127;-77
2022/07/15 03:42:26;;;;;;;8.38;3.80;;;;;;;17.12;81.54;99122.63;1768462;79;21071;-78
2022/07/15 03:44:53;;;;;;;4.72;3.25;;;;;;;17.08;81.79;99121.51;1728194;83;21150;-78
2022/07/15 03:47:20;;;;;;;7.17;3.70;;;;;;;17.08;81.91;99109.55;1745959;81;21142;-77
2022/07/15 03:49:47;;;;;;;7.87;3.95;;;;;;;17.10;82.22;99104.13;1744951;82;21518;-78
2022/07/15 03:52:15;;;;;;;8.90;4.03;;;;;;;17.13;82.69;99109.24;1745240;82;21638;-77
2022/07/15 03:54:42;;;;;;;8.40;4.28;;;;;;;17.16;83.26;99109.49;1738935;81;20997;-77
2022/07/15 03:57:10;;;;;;;10.60;3.80;;;;;;;17.19;83.57;99118.11;1779393;80;21124;-78
2022/07/15 03:59:38;;;;;;;8.18;3.95;;;;;;;17.23;84.07;99127.59;1788512;79;20981;-77
2022/07/15 04:02:05;;;;;;;3.60;3.30;;;;;;;17.26;84.36;99126.52;1793769;80;21087;-77
2022/07/15 04:04:31;;;;;;;5.00;3.30;;;;;;;17.27;84.70;99118.44;1793632;79;21725;-78
2022/07/15 04:06:58;;;;;;;3.52;3.22;;;;;;;17.28;84.67;99111.30;1793616;80;21736;-77
2022/07/15 04:09:26;;;;;;;9.08;3.22;;;;;;;17.31;84.79;99103.12;1793410;80;21483;-78
2022/07/15 04:11:53;;;;;;;3.70;3.40;;;;;;;17.34;84.86;99105.56;1793508;79;21092;-77
2022/07/15 04:14:22;;;;;;;7.28;3.17;;;;;;;17.35;85.01;99095.77;1793596;78;21503;-77
2022/07/15 04:16:49;;;;;;;5.53;3.02;;;;;;;17.37;84.83;99070.80;1793503;80;21143;-77
2022/07/15 04:19:26;;;;;;;5.50;3.47;;;;;;;17.43;84.65;99043.78;1793688;79;21016;-77
2022/07/15 04:21:55;;;;;;;5.65;3.45;;;;;;;17.50;84.96;99043.33;1793698;79;20988;-77
2022/07/15 04:24:22;;;;;;;3.58;3.17;;;;;;;17.55;85.36;99050.50;1793680;80;21076;-77
2022/07/15 04:26:49;;;;;;;3.30;3.00;;;;;;;17.57;84.86;99040.63;1793797;80;21031;-77
2022/07/15 04:29:17;;;;;;;3.10;2.90;;;;;;;17.63;84.44;99041.03;1793401;79;21069;-78
2022/07/15 04:31:43;;;;;;;4.12;3.12;;;;;;;17.69;84.05;99035.75;1792225;80;21000;-78
2022/07/15 04:34:12;;;;;;;3.25;3.05;;;;;;;17.77;84.24;99036.50;1769451;81;20969;-77
2022/07/15 04:36:40;;;;;;;3.60;3.30;;;;;;;17.83;84.29;99034.74;1769381;80;21298;-77
2022/07/15 04:39:07;;;;;;;8.08;3.22;;;;;;;17.92;84.53;99035.91;1769382;80;20977;-76
2022/07/15 04:41:34;;;;;;;4.50;3.87;;;;;;;17.99;84.77;99034.53;1769924;81;21067;-77
2022/07/15 04:44:02;;;;;;;4.08;3.67;;;;;;;18.03;85.41;99045.30;1769546;81;21452;-77
2022/07/15 04:46:30;;;;;;;3.55;3.35;;;;;;;18.02;85.82;99055.57;1769540;80;21032;-77
2022/07/15 04:51:44;;;;;;;8.38;4.28;;;;;;;18.00;85.62;99054.84;1769622;81;21111;-79
2022/07/15 04:54:11;;;;;;;3.75;3.50;;;;;;;18.03;85.81;99055.95;1769711;80;22102;-78
2022/07/15 04:56:39;;;;;;;4.62;3.60;;;;;;;18.05;85.53;99056.69;1769471;81;21103;-77
2022/07/15 04:59:08;;;;;;;3.95;3.47;;;;;;;18.12;85.07;99057.95;1770568;80;21044;-77
2022/07/15 05:01:34;;;;;;;16.48;9.33;;;;;;;18.18;84.90;99060.15;1754112;81;21088;-77
2022/07/15 05:04:01;;;;;;;9.05;8.05;;;;;;;18.23;84.74;99074.47;1749830;81;21412;-78
2022/07/15 05:06:28;;;;;;;11.12;7.53;;;;;;;18.23;84.87;99064.30;1754088;80;21142;-77
2022/07/15 05:08:55;;;;;;;14.05;7.35;;;;;;;18.25;85.20;99066.36;1753742;81;21013;-77
2022/07/15 05:11:22;;;;;;;5.83;5.33;;;;;;;18.24;85.24;99063.32;1754264;81;21106;-77
2022/07/15 05:13:49;;;;;;;5.47;4.97;;;;;;;18.24;85.23;99052.67;1754106;81;21032;-78
2022/07/15 05:16:16;;;;;;;6.60;4.72;;;;;;;18.26;84.98;99044.11;1754459;80;21158;-77
2022/07/15 05:18:43;;;;;;;5.78;4.30;;;;;;;18.30;84.65;99033.59;1753925;81;21501;-77
2022/07/15 05:21:09;;;;;;;4.67;3.90;;;;;;;18.36;84.24;99021.16;1753980;80;20997;-77
2022/07/15 05:23:38;;;;;;;4.53;4.05;;;;;;;18.41;84.04;99008.34;1754008;81;21006;-77
2022/07/15 05:26:05;;;;;;;8.35;5.67;;;;;;;18.49;84.27;99004.63;1753831;81;21154;-78
2022/07/15 05:28:34;;;;;;;9.00;4.58;;;;;;;18.56;84.50;98994.34;1754012;81;21622;-78
2022/07/15 05:31:01;;;;;;;5.72;4.05;;;;;;;18.65;84.71;98994.13;1754066;81;21175;-78
2022/07/15 05:33:29;;;;;;;7.40;3.80;;;;;;;18.73;84.89;98987.23;1753873;81;21052;-78
2022/07/15 05:35:58;;;;;;;4.60;3.98;;;;;;;18.82;84.64;98985.67;1754045;81;21582;-78
2022/07/15 05:38:27;;;;;;;6.62;3.33;;;;;;;18.89;84.37;98980.25;1753825;81;21037;-78
2022/07/15 05:40:53;;;;;;;3.83;3.25;;;;;;;18.98;83.79;98973.84;1754009;81;21158;-78
2022/07/15 05:43:20;;;;;;;3.75;3.42;;;;;;;19.07;83.23;98973.14;1753863;81;21992;-77
2022/07/15 05:45:47;;;;;;;3.58;3.25;;;;;;;19.16;82.85;98965.73;1752362;80;21571;-77
2022/07/15 05:48:14;;;;;;;6.22;4.15;;;;;;;19.22;82.59;98965.25;1785032;80;21523;-78
2022/07/15 05:50:43;;;;;;;5.47;3.70;;;;;;;19.27;82.42;98966.23;1773953;80;21178;-77
2022/07/15 05:53:11;;;;;;;5.05;3.87;;;;;;;19.34;81.75;98962.59;1774010;80;21103;-78
2022/07/15 05:55:39;;;;;;;4.50;4.10;;;;;;;19.39;81.00;98968.41;1773831;80;21978;-77
2022/07/15 05:58:07;;;;;;;4.62;3.87;;;;;;;19.42;80.85;98966.34;1773762;80;21017;-78
2022/07/15 06:00:37;;;;;;;6.20;3.80;;;;;;;19.46;80.57;98965.59;1772884;79;21012;-78
2022/07/15 06:03:05;;;;;;;6.72;3.75;;;;;;;19.51;80.29;98963.41;1771594;81;21052;-77
2022/07/15 06:05:32;;;;;;;3.70;3.40;;;;;;;19.56;79.69;98963.88;1772043;81;21049;-78
2022/07/15 06:08:01;;;;;;;8.75;3.45;;;;;;;19.62;79.42;98958.55;1771658;81;22441;-77
2022/07/15 06:10:31;;;;;;;3.45;3.20;;;;;;;19.70;79.30;98959.25;1771704;80;21169;-76
2022/07/15 06:12:58;;;;;;;6.58;3.17;;;;;;;19.79;79.23;98949.20;1771826;81;21063;-78
2022/07/15 06:15:26;;;;;;;4.55;3.22;;;;;;;19.90;79.22;98945.14;1835686;78;21043;-76
2022/07/15 06:17:53;;;;;;;5.92;3.15;;;;;;;20.02;78.85;98938.81;1836009;78;21048;-77
2022/07/15 06:20:22;;;;;;;4.47;3.20;;;;;;;20.18;78.36;98940.20;1836233;77;21826;-78
2022/07/15 06:22:49;;;;;;;3.42;3.20;;;;;;;20.29;77.96;98934.80;1835621;78;20951;-80
2022/07/15 06:25:18;;;;;;;5.65;3.17;;;;;;;20.40;77.85;98936.56;1835901;78;21051;-78
2022/07/15 06:27:45;;;;;;;4.17;3.05;;;;;;;20.54;77.38;98934.04;1830981;77;20969;-77
2022/07/15 06:30:12;;;;;;;3.33;2.80;;;;;;;20.66;77.24;98925.02;1836001;77;21102;-77
2022/07/15 06:32:39;;;;;;;3.08;2.85;;;;;;;20.81;76.49;98928.67;1836210;78;21109;-76
2022/07/15 06:35:06;;;;;;;4.70;2.87;;;;;;;20.91;76.23;98927.76;1835936;78;20960;-76
2022/07/15 06:37:33;;;;;;;3.67;2.75;;;;;;;21.01;75.64;98929.62;1836065;78;21102;-77
2022/07/15 06:40:00;;;;;;;4.25;2.62;;;;;;;21.12;75.09;98923.68;1836267;78;20975;-76
2022/07/15 06:42:26;;;;;;;3.47;2.87;;;;;;;21.25;74.84;98932.82;1819448;78;21043;-77
2022/07/15 06:44:58;;;;;;;4.87;2.80;;;;;;;21.39;74.65;98914.19;1819941;78;21198;-78
2022/07/15 06:47:25;;;;;;;2.50;2.40;;;;;;;21.56;74.00;98915.89;1819514;78;21114;-76
2022/07/15 06:49:52;;;;;;;6.40;2.77;;;;;;;21.67;73.11;98901.02;1819959;78;20992;-77
2022/07/15 06:52:19;;;;;;;2.70;2.50;;;;;;;21.76;72.30;98914.09;1819573;78;21027;-77
2022/07/15 06:54:47;;;;;;;4.15;2.85;;;;;;;21.83;71.62;98908.02;1819490;78;21078;-78
2022/07/15 06:57:16;;;;;;;4.65;2.42;;;;;;;21.89;71.20;98899.44;1826030;78;21708;-77
2022/07/15 06:59:43;;;;;;;6.50;2.60;;;;;;;21.94;71.26;98895.47;1819106;78;21020;-78
2022/07/15 07:02:10;;;;;;;7.20;3.22;;;;;;;22.00;70.81;98894.92;1758686;81;21198;-78
2022/07/15 07:04:37;;;;;;;7.45;2.50;;;;;;;22.04;70.36;98896.31;1758808;81;21064;-77
2022/07/15 07:07:03;;;;;;;4.95;2.37;;;;;;;22.07;69.74;98902.73;1759064;80;21076;-77
2022/07/15 07:09:30;;;;;;;3.62;2.35;;;;;;;22.10;69.66;98898.44;1758724;81;21795;-78
2022/07/15 07:11:58;;;;;;;4.12;2.60;;;;;;;22.15;69.14;98900.20;1758795;81;21535;-77
2022/07/15 07:14:24;;;;;;;3.50;2.42;;;;;;;22.21;69.32;98900.98;1758901;80;22287;-76
2022/07/15 07:16:52;;;;;;;4.92;2.62;;;;;;;22.28;69.47;98893.72;1758899;81;21614;-78
2022/07/15 07:19:18;;;;;;;3.12;2.40;;;;;;;22.32;69.14;98884.42;1758861;81;21055;-76
2022/07/15 07:21:45;;;;;;;6.58;2.60;;;;;;;22.35;68.79;98882.80;1758698;81;21250;-78
2022/07/15 07:24:11;;;;;;;4.67;2.37;;;;;;;22.34;68.50;98885.98;1758983;80;21059;-78
2022/07/15 07:26:38;;;;;;;5.08;2.25;;;;;;;22.36;68.49;98891.17;1758732;81;21108;-77
2022/07/15 07:29:04;;;;;;;2.72;2.52;;;;;;;22.38;68.50;98890.55;1758727;80;21583;-78
2022/07/15 07:31:31;;;;;;;3.02;2.37;;;;;;;22.44;68.53;98891.30;1758663;81;21122;-79
2022/07/15 07:33:58;;;;;;;2.30;2.20;;;;;;;22.53;68.47;98896.31;1758991;80;21103;-78
2022/07/15 07:36:25;;;;;;;3.02;2.22;;;;;;;22.59;68.17;98901.95;1758748;81;21049;-77
2022/07/15 07:38:52;;;;;;;8.65;2.40;;;;;;;22.68;68.10;98907.39;1759025;80;21056;-77
2022/07/15 07:41:19;;;;;;;4.50;2.60;;;;;;;22.74;68.11;98905.48;1758599;81;21068;-77
2022/07/15 07:43:46;;;;;;;3.83;2.40;;;;;;;22.85;67.89;98912.02;1759091;81;21151;-78
2022/07/15 07:46:13;;;;;;;4.60;3.00;;;;;;;22.99;68.22;98919.58;1758581;81;21149;-78
2022/07/15 07:48:40;;;;;;;3.52;2.58;;;;;;;23.15;68.21;98911.45;1754377;81;21140;-77
2022/07/15 07:51:07;;;;;;;11.15;2.62;;;;;;;23.29;67.22;98902.88;1756347;81;20972;-78
2022/07/15 07:53:34;;;;;;;5.15;2.58;;;;;;;23.46;66.76;98904.42;1756643;81;21098;-76
2022/07/15 07:56:02;;;;;;;3.87;2.83;;;;;;;23.60;66.48;98902.55;1756514;80;21071;-77
2022/07/15 07:58:29;;;;;;;7.00;2.10;;;;;;;23.78;65.46;98909.80;1733472;81;21176;-78
2022/07/15 08:00:55;;;;;;;2.65;2.00;;;;;;;23.94;64.41;98916.71;1752247;80;21020;-78
2022/07/15 08:03:22;;;;;;;6.97;2.02;;;;;;;24.09;61.40;98919.20;1745814;81;21071;-77
2022/07/15 08:05:49;;;;;;;7.60;2.50;;;;;;;24.25;59.24;98910.92;1745347;82;21009;-77
2022/07/15 08:08:19;;;;;;;11.30;2.30;;;;;;;24.38;57.84;98910.02;1802726;79;21066;-78
2022/07/15 08:10:55;;;;;;;2.17;1.98;;;;;;;24.52;56.33;98926.59;1802332;79;21218;-79
2022/07/15 08:13:24;;;;;;;8.30;2.00;;;;;;;24.62;56.99;98935.44;1802467;79;21066;-78
2022/07/15 08:15:53;;;;;;;9.55;2.08;;;;;;;24.71;55.89;98947.09;1802321;79;21074;-77
2022/07/15 08:18:20;;;;;;;3.70;1.80;;;;;;;24.73;54.11;98932.49;1802589;79;21090;-78
2022/07/15 08:20:47;;;;;;;6.30;2.00;;;;;;;24.71;54.82;98938.51;1802437;79;21089;-76
2022/07/15 08:23:19;;;;;;;7.17;2.00;;;;;;;24.68;54.65;98960.38;1802327;79;21133;-78
2022/07/15 08:25:42;;;;;;;4.87;3.12;;;;;;;24.66;56.31;98943.52;1802887;79;21723;-77
2022/07/15 08:28:08;;;;;;;8.05;3.77;;;;;;;24.72;61.56;98948.79;1802349;79;20988;-77
2022/07/15 08:30:35;;;;;;;8.08;3.80;;;;;;;24.68;63.99;98964.41;1802487;79;21019;-77
2022/07/15 08:33:03;;;;;;;4.10;3.45;;;;;;;24.57;64.67;98964.65;1802311;79;21474;-78
2022/07/15 08:35:30;;;;;;;3.37;3.08;;;;;;;24.36;64.85;98969.84;1802503;79;21053;-77
2022/07/15 08:37:58;;;;;;;3.27;2.90;;;;;;;24.15;65.31;98980.05;1802338;79;21397;-78
2022/07/15 08:40:26;;;;;;;3.33;3.02;;;;;;;23.99;66.04;98986.95;1802333;79;22203;-77
2022/07/15 08:42:53;;;;;;;3.83;3.40;;;;;;;23.86;65.54;98981.11;1777827;79;21039;-77
2022/07/15 08:45:20;;;;;;;4.70;3.00;;;;;;;23.67;66.27;98980.20;1802450;79;21073;-77
2022/07/15 08:47:47;;;;;;;3.75;3.22;;;;;;;23.53;66.93;98978.83;1802575;79;22112;-78
2022/07/15 08:50:17;;;;;;;3.52;3.22;;;;;;;23.42;67.75;98985.77;1802147;79;21625;-77
2022/07/15 08:52:46;;;;;;;3.92;3.52;;;;;;;23.35;68.35;98985.98;1802410;79;20999;-78
2022/07/15 08:55:15;;;;;;;3.52;3.20;;;;;;;23.36;68.83;99000.61;1802565;79;21665;-78
2022/07/15 08:57:47;;;;;;;5.62;3.15;;;;;;;23.30;68.09;98993.64;1802318;79;21054;-77
2022/07/15 09:00:14;;;;;;;4.42;2.87;;;;;;;23.22;68.24;99003.78;1802484;79;21171;-78
2022/07/15 09:02:40;;;;;;;7.47;3.70;;;;;;;23.22;68.83;99001.58;1804931;79;21042;-78
2022/07/15 09:05:22;;;;;;;3.67;3.00;;;;;;;23.18;68.52;98993.84;1805245;79;21461;-78
2022/07/15 09:08:06;;;;;;;2.75;2.58;;;;;;;23.21;68.79;99000.73;1804963;79;21062;-77
2022/07/15 09:10:53;;;;;;;3.42;3.12;;;;;;;23.21;67.65;98998.56;1805464;79;21124;-78
2022/07/15 09:13:32;;;;;;;4.47;2.92;;;;;;;23.18;67.79;98997.87;1804739;79;21184;-77
2022/07/15 09:16:10;;;;;;;3.30;3.00;;;;;;;23.15;66.69;98994.13;1805491;79;21046;-78
2022/07/15 09:18:43;;;;;;;2.55;2.45;;;;;;;23.07;66.48;98993.17;1804957;79;21004;-77
2022/07/15 09:21:26;;;;;;;3.72;2.60;;;;;;;23.02;66.81;99000.78;1805212;79;21047;-78
2022/07/15 09:23:53;;;;;;;3.10;2.90;;;;;;;22.98;67.40;99004.23;1804852;79;21611;-77
2022/07/15 09:26:33;;;;;;;4.55;3.05;;;;;;;22.92;66.35;99009.69;1805240;79;21121;-77
2022/07/15 09:29:00;;;;;;;8.45;3.30;;;;;;;22.84;67.06;99014.92;1804603;79;20980;-78
2022/07/15 09:34:18;;;;;;;3.75;2.70;;;;;;;22.70;66.64;99006.00;1805048;79;21471;-78
2022/07/15 09:36:50;;;;;;;3.65;2.77;;;;;;;22.69;66.78;99009.66;1805266;79;21082;-78
2022/07/15 09:39:17;;;;;;;3.37;2.87;;;;;;;22.67;65.67;99023.71;1805281;79;21104;-77
2022/07/15 09:41:44;;;;;;;3.62;2.65;;;;;;;22.58;66.18;99020.89;1805106;79;21030;-78
2022/07/15 09:44:17;;;;;;;3.98;2.70;;;;;;;22.53;66.28;99025.84;1804756;79;21081;-77
2022/07/15 09:46:55;;;;;;;9.95;4.70;;;;;;;22.52;65.95;99024.63;1805008;79;21907;-78
2022/07/15 09:49:32;;;;;;;4.35;3.42;;;;;;;22.50;66.33;99023.44;1804300;79;21034;-78
2022/07/15 09:52:08;;;;;;;6.87;3.40;;;;;;;22.49;66.68;99032.45;1805067;79;21085;-78
2022/07/15 09:54:39;;;;;;;3.47;3.15;;;;;;;22.49;66.74;99038.31;1804617;79;21043;-79
2022/07/15 09:57:11;;;;;;;5.25;3.60;;;;;;;22.47;66.91;99047.00;1818754;78;20981;-78
2022/07/15 09:59:38;;;;;;;3.83;3.27;;;;;;;22.44;67.37;99053.47;1819575;77;21076;-78
2022/07/15 10:02:09;;;;;;;3.87;3.00;;;;;;;22.39;67.09;99039.64;1813918;78;21051;-78
2022/07/15 10:04:37;;;;;;;5.28;3.52;;;;;;;22.37;67.05;99044.31;1819394;78;22253;-77
2022/07/15 10:07:04;;;;;;;4.87;3.47;;;;;;;22.34;67.60;99052.62;1818753;77;21486;-78
2022/07/15 10:09:35;;;;;;;6.17;3.80;;;;;;;22.28;67.79;99055.85;1819174;77;21071;-78
2022/07/15 10:12:24;;;;;;;3.42;3.22;;;;;;;22.22;68.64;99050.03;1819261;77;21111;-79
2022/07/15 10:15:35;;;;;;;7.55;3.33;;;;;;;22.16;68.35;99057.30;1819187;78;21071;-77
2022/07/15 10:18:19;;;;;;;4.45;3.65;;;;;;;22.01;68.30;99062.20;1780679;80;21770;-78
2022/07/15 10:21:06;;;;;;;6.12;3.90;;;;;;;21.87;69.16;99054.54;1809782;78;21553;-78
2022/07/15 10:23:53;;;;;;;3.83;3.52;;;;;;;21.79;70.28;99064.61;1819248;78;21044;-77
2022/07/15 10:26:34;;;;;;;5.80;3.77;;;;;;;21.70;70.19;99074.78;1818324;78;21013;-77
2022/07/15 10:29:06;;;;;;;8.00;3.60;;;;;;;21.57;69.92;99075.50;1818371;78;21541;-77
2022/07/15 10:31:35;;;;;;;9.38;4.58;;;;;;;21.47;70.47;99084.34;1819002;77;21104;-78
2022/07/15 10:34:16;;;;;;;5.67;4.97;;;;;;;21.40;71.03;99096.55;1819377;78;21064;-77
2022/07/15 10:36:54;;;;;;;4.70;4.28;;;;;;;21.35;71.82;99090.73;1818944;78;21091;-77
2022/07/15 10:39:24;;;;;;;7.60;4.22;;;;;;;21.32;73.07;99100.37;1818750;78;21095;-77
2022/07/15 10:42:01;;;;;;;7.37;4.37;;;;;;;21.30;73.56;99103.64;1819176;77;21005;-77
2022/07/15 10:44:32;;;;;;;6.60;4.47;;;;;;;21.32;74.79;99100.37;1816148;77;21108;-78
2022/07/15 10:47:19;;;;;;;7.62;4.42;;;;;;;21.34;75.11;99107.77;1787266;78;21043;-78
2022/07/15 10:49:48;;;;;;;4.28;3.90;;;;;;;21.40;75.09;99117.08;1709474;83;21087;-77
2022/07/15 10:52:21;;;;;;;4.40;4.10;;;;;;;21.40;75.44;99115.28;1730566;82;21016;-77
2022/07/15 10:55:04;;;;;;;5.08;4.50;;;;;;;21.42;75.84;99121.34;1730944;82;21151;-76
2022/07/15 10:57:50;;;;;;;9.68;4.70;;;;;;;21.38;76.31;99122.56;1730697;82;21249;-77
2022/07/15 11:00:35;;;;;;;6.80;4.60;;;;;;;21.32;76.96;99131.14;1730742;82;21424;-77
2022/07/15 11:03:13;;;;;;;8.15;4.75;;;;;;;21.27;77.59;99136.04;1743580;82;21540;-77
2022/07/15 11:05:56;;;;;;;9.90;5.20;;;;;;;21.26;78.34;99139.68;1745333;82;21150;-77
2022/07/15 11:08:40;;;;;;;7.42;5.15;;;;;;;21.27;78.70;99142.23;1745029;82;21118;-77
2022/07/15 11:11:22;;;;;;;6.40;5.10;;;;;;;21.32;79.42;99149.88;1745242;81;22209;-77
2022/07/15 11:13:50;;;;;;;9.00;4.85;;;;;;;21.36;79.24;99145.94;1745149;81;21095;-76
2022/07/15 11:16:20;;;;;;;14.15;6.03;;;;;;;21.40;79.32;99143.38;1719956;82;21060;-77
2022/07/15 11:18:51;;;;;;;14.13;5.10;;;;;;;21.38;78.38;99134.61;1745165;82;21127;-76
2022/07/15 11:21:19;;;;;;;14.45;5.37;;;;;;;21.31;78.54;99134.78;1745084;82;21044;-77
2022/07/15 11:23:49;;;;;;;4.53;4.12;;;;;;;21.27;78.88;99130.69;1745244;82;21548;-79
2022/07/15 11:26:16;;;;;;;10.30;6.50;;;;;;;21.20;78.96;99110.77;1745218;82;21070;-79
2022/07/15 11:28:55;;;;;;;7.53;5.78;;;;;;;21.17;79.16;99108.38;1745483;82;21013;-82
2022/07/15 11:31:23;;;;;;;5.25;4.75;;;;;;;21.17;78.78;99111.05;1745616;82;21114;-83
2022/07/15 11:33:54;;;;;;;10.08;4.87;;;;;;;21.14;78.27;99129.03;1744779;81;21012;-74
2022/07/15 11:36:22;;;;;;;8.70;4.60;;;;;;;21.10;78.03;99151.69;1745658;82;21116;-80
2022/07/15 11:38:49;;;;;;;8.93;5.00;;;;;;;21.03;78.27;99155.86;1745317;82;21160;-79
2022/07/15 11:46:56;;;;;;;6.15;5.00;;;;;;;20.86;78.51;99167.94;1745463;82;21515;-79
2022/07/15 11:49:35;;;;;;;6.45;5.60;;;;;;;20.84;78.54;99174.41;1746157;80;21106;-81
2022/07/15 11:52:05;;;;;;;6.40;5.80;;;;;;;20.78;78.51;99184.63;1745799;81;21026;-81
2022/07/15 11:54:35;;;;;;;6.33;5.10;;;;;;;20.67;78.75;99190.00;1745453;82;21044;-81
2022/07/15 11:57:09;;;;;;;6.30;5.62;;;;;;;20.60;79.11;99188.78;1745512;81;21153;-73
2022/07/15 11:59:36;;;;;;;;;;;;;;;20.57;79.64;99197.05;1748181;82;21058;-73
2022/07/15 12:02:08;;;;;;;8.63;5.40;;;;;;;20.57;80.38;99194.38;1745554;81;21105;-73